En poursuivant votre navigation sur ce site, vous acceptez l'utilisation de cookies pour vous proposer des contenus et services adaptés. Mentions légales.
  

21/11/2020  Mise à jour des tableaux d'analyses décadaires : rubrique climatologie
03/11/2020 Mise en ligne de la synthèse climatologique d'Octobre 2020 : 
CLIQUEZ ICI
01/11/2020  Mise à jour des tableaux d'analyses décadaires, mensuelles et annuelles : rubrique climatologie
21/09/2020 Retour sur un épisode de chaleur exceptionnel en septembre : CLIQUEZ ICI   

NOAA COMPLET DU MOIS

Si l'entête du tableau ne s'affiche pas correctement, => actualisez la page (F5 avec Internet Explorer, Chrome...).
Utilisez l'ascenseur sur la droite des lignes du tableau pour faire défiler verticalement les jours du mois.

TABLEAU DES DONNEES COMPLETES NOAA de JUIN 2020

DATE TEMPERATURE
sous abri
TEMPARATURE 
au sol
VENT  et  Indice de Refroidissement Eolien  PRECIPITATIONS (en mm/m2)
et Intensité
PRESSION ATMOSPHERIQUE (en hPa) HUMIDITE de l'AIR RADIATIONS SOLAIRES (en W/m2)
Mini Moy. Maxi Mini Moy. Maxi Moyen Rafale I.R.E.
Minii
Précip. jour Cumul mois Intensité Maxi Mini Moy. Maxi Mini Moy. Maxi Pic maxi du jour Total jour
01/06/20 10.7° 19.7° 26.9° 9.4° 19.9° 31.7° 2.4km/h dir NNE 16.1km/h dir NNE 10.7° 0 0 1013.9 1014.8 1015.8 43% 68.5% 93% 976 85 629
02/06/20 14.6° 21.7° 27.8° 12.8° 21.8° 31.7° 3.5km/h dir NNE 17.7km/h dir N 14.6° 0 0 1010.4 1013.7 1016.2 41% 64.2% 88% 956 93 298
03/06/20 13.2° 19.6° 26.2° 11.1° 19.5° 30° 5.1km/h dir S 45.1km/h dir SO 13.2° 13 13 230.4mm/h 1001.2 1005.4 1010.5 51% 74.6% 93% 960 65 134
04/06/20 12.6° 17.1° 21.9° 11.7° 17.5° 26.1° 5.1km/h dir SSE 24.1km/h dir ESE 12.7° 6.6 19.6 109.8mm/h 996.7 998.8 1001.5 59% 85.7% 95% 984 43 891
05/06/20 12.4° 14.6° 16.8° 11.7° 14.8° 20° 6.6km/h dir SSE 35.4km/h dir SSE 12.5° 0.2 19.8 1001.2 1004.4 1006.5 63% 80.7% 94% 758 33 022
06/06/20 13.1° 17.2° 21.7° 12.8° 17.1° 24.4° 7.2km/h dir SSE 27.4km/h dir S 13.1° 2.4 22.2 10.4mm/h 1004.9 1006 1007.6 64% 77.8% 92% 570 27 345
07/06/20 11.8° 15.1° 20.4° 10° 15.6° 25.6° 4.3km/h dir ONO 29km/h dir O 11.8° 2.4 24.6 3.2mm/h 1006.3 1008.6 1011.7 48% 76.8% 95% 1234 59 954
08/06/20 9.7° 14° 20.2° 7.8° 14.1° 24.4° 6km/h dir ONO 32.2km/h dir NNE 9.1° 3.4 28 20.8mm/h 1010 1011.2 1013 54% 81.5% 94% 1232 57 044
09/06/20 11.7° 12.8° 15° 11.7° 12.9° 15.6° 4.5km/h dir O 29km/h dir ONO 11° 11.2 39.2 106.6mm/h 1012.2 1013.8 1015.4 87% 94.1% 96% 225 14 751
10/06/20 12.2° 14° 17.4° 11.1° 14.1° 19.4° 4.3km/h dir ONO 17.7km/h dir ONO 11.9° 1.2 40.4 1.4mm/h 1012 1013.6 1015.2 79% 91.8% 96% 496 23 107
11/06/20 12.2° 17.2° 23.4° 11.1° 18.2° 27.2° 3.7km/h dir SE 22.5km/h dir SSE 12.3° 0.2 40.6 1004.1 1007.3 1012.1 53% 78.2% 97% 1202 70 233
12/06/20 12.7° 16.2° 19.9° 13.9° 16.7° 23.3° 5.6km/h dir ONO 32.2km/h dir SSO 12° 9.4 50 140.4mm/h 1002.1 1004.1 1008.7 69% 87.5% 95% 983 28 203
13/06/20 12.3° 15.7° 22.6° 13.9° 18.9° 27.8° 4.3km/h dir SSE 20.9km/h dir O 12.3° 6.2 56.2 22.8mm/h 1007.8 1011.1 1015.5 61% 87.4% 97% 1079 45 236
14/06/20 13.3° 17.7° 22.9° 14.4° 20.4° 28.9° 3.9km/h dir ONO 25.7km/h dir ENE 13.3° 0 56.2 1015.6 1016.7 1017.7 52% 77.2% 96% 1246 74 533
15/06/20 11.2° 17.6° 23.5° 12.2° 19.3° 28.3° 5.3km/h dir O 24.1km/h dir O 11.2° 0 56.2 1017 1018.1 1019 52% 75% 96% 1179 73 701
16/06/20 10.6° 17.8° 24.2° 11.1° 19.1° 28.3° 5.1km/h dir O 24.1km/h dir SO 10.6° 0 56.2 1011.7 1015.3 1018.5 53% 74.9% 96% 1151 82 565
17/06/20 13.7° 17.3° 22.6° 12.2° 18.1° 27.2° 3.1km/h dir O 22.5km/h dir O 13.8° 4 60.2 5.4mm/h 1011.5 1013 1013.9 53% 76.2% 95% 1109 57 970
18/06/20 11.5° 17.1° 23.3° 10.6° 18° 27.8° 3.2km/h dir O 29km/h dir O 11.5° 0.8 61 1012.4 1013.7 1016.2 49% 76.8% 94% 1216 76 796
19/06/20 12.6° 17.6° 23.5° 11.7° 18.3° 27.8° 3.9km/h dir O 22.5km/h dir O 12.6° 0 61 1016.3 1017.8 1019.6 50% 75.1% 95% 1334 84 357
20/06/20 10.6° 18.3° 25° 9.4° 18.7° 28.9° 4.3km/h dir ONO 24.1km/h dir O 10.7° 0 61 1019.2 1020.1 1021 48% 72.2% 95% 1130 92 998
21/06/20 11.3° 19.6° 26.3° 10° 19.9° 30° 4.5km/h dir O 20.9km/h dir O 11.3° 0 61 1020.1 1020.9 1023.2 47% 70.6% 95% 1104 90 025
22/06/20 16.8° 20.8° 25.6° 15.6° 21.3° 28.3° 9.2km/h dir ONO 32.2km/h dir NNE 16.8° 0 61 1020.3 1022.6 1024 54% 72.5% 89% 1120 82 954
23/06/20 12.4° 21.8° 30° 10.6° 22.1° 33.3° 4km/h dir ONO 20.9km/h dir O 12.5° 0 61 1016.1 1019 1020.8 51% 69% 90% 926 96 471
24/06/20 15.9° 24.6° 32.7° 14.4° 24.7° 36.7° 2.3km/h dir NE 14.5km/h dir NNE 15.9° 0 61 1013.5 1015.7 1017.2 46% 70.9% 95% 907 93 607
25/06/20 19.9° 26.6° 32.5° 16.7° 26.4° 35° 6.6km/h dir SSE 25.7km/h dir S 19.9° 0 61 1011.1 1013.3 1015.1 40% 55.8% 78% 900 93 750
26/06/20 19.2° 24.2° 28.9° 18.3° 24.6° 32.8° 6.9km/h dir SE 29km/h dir S 19.2° 3.6 64.6 28.2mm/h 1009.9 1012.6 1015.8 53% 62.5% 90% 1104 68 881
27/06/20 20.3° 25.3° 31.1° 19.4° 25.8° 33.3° 6.4km/h dir SSE 33.8km/h dir SSE 20.4° 0 64.6 1010.8 1012.7 1014.1 43% 58.3% 77% 942 87 848
28/06/20 17.4° 22.2° 28.6° 17.2° 23.1° 32.8° 4.7km/h dir ONO 37km/h dir OSO 17.4° 2.2 66.8 71.2mm/h 1014 1015.7 1017.1 53% 77.9% 94% 1187 66 382
29/06/20 16.9° 20.9° 26.7° 16.7° 21.8° 30° 3.7km/h dir O 22.5km/h dir O 16.9° 1 67.8 2.6mm/h 1013.9 1015.4 1017 45% 72.6% 96% 1183 82 709
30/06/20 13.4° 21.4° 28.3° 12.2° 21.7° 31.1° 2.3km/h dir NE 16.1km/h dir S 13.4° 0 67.8 1010.7 1013.7 1016.2 42% 63.7% 90% 916 95 094

RETOUR ACCUEIL


Date de création : 01/07/2020 : 22:31
Catégorie : - MOIS PASSES - JUIN 2020
Page lue 193 fois